sensor_id;sensor_type;location;lat;lon;timestamp;pressure;altitude;pressure_sealevel;temperature;humidity
35331;BME280;21441;52.190;20.910;2023-05-23T00:00:20;100151.69;;;15.53;58.14
35331;BME280;21441;52.190;20.910;2023-05-23T00:03:08;100146.31;;;15.40;59.23
35331;BME280;21441;52.190;20.910;2023-05-23T00:05:35;100147.75;;;15.36;59.46
35331;BME280;21441;52.190;20.910;2023-05-23T00:08:02;100137.19;;;15.41;58.98
35331;BME280;21441;52.190;20.910;2023-05-23T00:10:30;100143.00;;;15.31;59.64
35331;BME280;21441;52.190;20.910;2023-05-23T00:12:58;100147.13;;;15.34;59.23
35331;BME280;21441;52.190;20.910;2023-05-23T00:15:25;100153.34;;;15.41;59.01
35331;BME280;21441;52.190;20.910;2023-05-23T00:17:52;100142.38;;;15.42;58.89
35331;BME280;21441;52.190;20.910;2023-05-23T00:20:19;100140.13;;;15.39;58.74
35331;BME280;21441;52.190;20.910;2023-05-23T00:22:47;100147.53;;;15.31;59.02
35331;BME280;21441;52.190;20.910;2023-05-23T00:25:14;100144.66;;;15.39;58.67
35331;BME280;21441;52.190;20.910;2023-05-23T00:27:41;100146.94;;;15.42;58.73
35331;BME280;21441;52.190;20.910;2023-05-23T00:30:10;100140.75;;;15.35;58.73
35331;BME280;21441;52.190;20.910;2023-05-23T00:32:37;100136.19;;;15.35;58.50
35331;BME280;21441;52.190;20.910;2023-05-23T00:35:06;100136.38;;;15.34;58.48
35331;BME280;21441;52.190;20.910;2023-05-23T00:37:33;100131.19;;;15.32;58.63
35331;BME280;21441;52.190;20.910;2023-05-23T00:40:00;100128.28;;;15.20;59.46
35331;BME280;21441;52.190;20.910;2023-05-23T00:42:27;100131.59;;;15.16;59.79
35331;BME280;21441;52.190;20.910;2023-05-23T00:44:54;100133.25;;;15.17;59.75
35331;BME280;21441;52.190;20.910;2023-05-23T00:47:22;100130.78;;;15.22;59.60
35331;BME280;21441;52.190;20.910;2023-05-23T00:49:50;100126.66;;;15.26;59.15
35331;BME280;21441;52.190;20.910;2023-05-23T00:52:17;100123.97;;;15.19;59.54
35331;BME280;21441;52.190;20.910;2023-05-23T00:54:44;100127.88;;;15.17;59.68
35331;BME280;21441;52.190;20.910;2023-05-23T00:57:12;100119.16;;;15.08;59.99
35331;BME280;21441;52.190;20.910;2023-05-23T00:59:39;100129.31;;;15.13;60.05
35331;BME280;21441;52.190;20.910;2023-05-23T01:02:06;100118.75;;;15.04;60.52
35331;BME280;21441;52.190;20.910;2023-05-23T01:04:35;100131.38;;;15.04;60.67
35331;BME280;21441;52.190;20.910;2023-05-23T01:07:03;100129.69;;;15.03;61.12
35331;BME280;21441;52.190;20.910;2023-05-23T01:09:31;100127.63;;;15.05;60.69
35331;BME280;21441;52.190;20.910;2023-05-23T01:12:09;100133.63;;;15.00;60.79
35331;BME280;21441;52.190;20.910;2023-05-23T01:14:44;100131.13;;;14.99;61.09
35331;BME280;21441;52.190;20.910;2023-05-23T01:17:16;100135.88;;;14.97;61.47
35331;BME280;21441;52.190;20.910;2023-05-23T01:19:57;100137.13;;;15.01;61.47
35331;BME280;21441;52.190;20.910;2023-05-23T01:22:32;100138.34;;;14.85;62.10
35331;BME280;21441;52.190;20.910;2023-05-23T01:25:08;100133.16;;;14.83;62.60
35331;BME280;21441;52.190;20.910;2023-05-23T01:27:46;100132.13;;;14.84;62.97
35331;BME280;21441;52.190;20.910;2023-05-23T01:30:17;100130.06;;;14.80;63.09
35331;BME280;21441;52.190;20.910;2023-05-23T01:32:45;100137.66;;;14.70;63.38
35331;BME280;21441;52.190;20.910;2023-05-23T01:35:15;100130.25;;;14.78;63.58
35331;BME280;21441;52.190;20.910;2023-05-23T01:37:44;100130.09;;;14.87;63.18
35331;BME280;21441;52.190;20.910;2023-05-23T01:40:12;100124.47;;;14.81;63.23
35331;BME280;21441;52.190;20.910;2023-05-23T01:42:39;100123.66;;;14.81;63.01
35331;BME280;21441;52.190;20.910;2023-05-23T01:45:09;100119.69;;;14.77;63.36
35331;BME280;21441;52.190;20.910;2023-05-23T01:47:37;100108.97;;;14.77;63.24
35331;BME280;21441;52.190;20.910;2023-05-23T01:50:07;100113.28;;;14.64;64.39
35331;BME280;21441;52.190;20.910;2023-05-23T01:52:35;100111.81;;;14.69;64.58
35331;BME280;21441;52.190;20.910;2023-05-23T01:55:04;100109.56;;;14.72;64.00
35331;BME280;21441;52.190;20.910;2023-05-23T01:57:35;100107.31;;;14.69;63.41
35331;BME280;21441;52.190;20.910;2023-05-23T02:00:03;100106.72;;;14.80;62.71
35331;BME280;21441;52.190;20.910;2023-05-23T02:02:33;100106.84;;;14.59;63.58
35331;BME280;21441;52.190;20.910;2023-05-23T02:05:00;100109.09;;;14.55;63.52
35331;BME280;21441;52.190;20.910;2023-05-23T02:07:27;100105.19;;;14.58;63.44
35331;BME280;21441;52.190;20.910;2023-05-23T02:09:55;100107.03;;;14.57;63.37
35331;BME280;21441;52.190;20.910;2023-05-23T02:12:22;100099.94;;;14.43;63.96
35331;BME280;21441;52.190;20.910;2023-05-23T02:14:49;100094.53;;;14.36;64.08
35331;BME280;21441;52.190;20.910;2023-05-23T02:17:17;100095.38;;;14.43;63.78
35331;BME280;21441;52.190;20.910;2023-05-23T02:19:46;100101.81;;;14.42;63.99
35331;BME280;21441;52.190;20.910;2023-05-23T02:22:13;100099.94;;;14.43;63.60
35331;BME280;21441;52.190;20.910;2023-05-23T02:24:40;100094.69;;;14.28;63.99
35331;BME280;21441;52.190;20.910;2023-05-23T02:27:07;100097.19;;;14.30;64.24
35331;BME280;21441;52.190;20.910;2023-05-23T02:29:35;100093.47;;;14.31;64.07
35331;BME280;21441;52.190;20.910;2023-05-23T02:32:01;100087.41;;;14.15;64.67
35331;BME280;21441;52.190;20.910;2023-05-23T02:34:29;100081.19;;;14.08;64.81
35331;BME280;21441;52.190;20.910;2023-05-23T02:36:58;100090.31;;;14.20;64.37
35331;BME280;21441;52.190;20.910;2023-05-23T02:39:25;100082.25;;;14.20;64.37
35331;BME280;21441;52.190;20.910;2023-05-23T02:41:52;100090.59;;;14.32;64.10
35331;BME280;21441;52.190;20.910;2023-05-23T02:44:20;100079.56;;;14.20;64.46
35331;BME280;21441;52.190;20.910;2023-05-23T02:46:46;100080.81;;;14.18;64.41
35331;BME280;21441;52.190;20.910;2023-05-23T02:49:14;100086.22;;;14.24;64.21
35331;BME280;21441;52.190;20.910;2023-05-23T02:51:41;100083.56;;;14.31;63.79
35331;BME280;21441;52.190;20.910;2023-05-23T02:54:09;100084.09;;;14.13;64.53
35331;BME280;21441;52.190;20.910;2023-05-23T02:56:36;100075.84;;;14.15;64.66
35331;BME280;21441;52.190;20.910;2023-05-23T02:59:03;100084.53;;;14.17;64.55
35331;BME280;21441;52.190;20.910;2023-05-23T03:01:31;100082.25;;;14.20;64.38
35331;BME280;21441;52.190;20.910;2023-05-23T03:03:58;100076.53;;;14.23;64.22
35331;BME280;21441;52.190;20.910;2023-05-23T03:06:25;100085.16;;;14.19;64.35
35331;BME280;21441;52.190;20.910;2023-05-23T03:08:52;100077.53;;;14.22;64.60
35331;BME280;21441;52.190;20.910;2023-05-23T03:11:20;100079.00;;;14.25;64.70
35331;BME280;21441;52.190;20.910;2023-05-23T03:13:48;100081.13;;;14.36;64.06
35331;BME280;21441;52.190;20.910;2023-05-23T03:16:14;100068.91;;;14.27;64.34
35331;BME280;21441;52.190;20.910;2023-05-23T03:18:42;100074.53;;;14.39;64.05
35331;BME280;21441;52.190;20.910;2023-05-23T03:21:08;100078.00;;;14.33;64.39
35331;BME280;21441;52.190;20.910;2023-05-23T03:23:36;100074.31;;;14.34;64.41
35331;BME280;21441;52.190;20.910;2023-05-23T03:26:03;100086.09;;;14.46;64.10
35331;BME280;21441;52.190;20.910;2023-05-23T03:28:32;100080.72;;;14.39;64.60
35331;BME280;21441;52.190;20.910;2023-05-23T03:31:00;100081.19;;;14.50;64.30
35331;BME280;21441;52.190;20.910;2023-05-23T03:33:27;100083.31;;;14.61;63.82
35331;BME280;21441;52.190;20.910;2023-05-23T03:35:54;100081.28;;;14.70;63.83
35331;BME280;21441;52.190;20.910;2023-05-23T03:38:22;100086.22;;;14.66;64.07
35331;BME280;21441;52.190;20.910;2023-05-23T03:40:49;100073.44;;;14.75;64.16
35331;BME280;21441;52.190;20.910;2023-05-23T03:43:16;100088.16;;;14.92;63.37
35331;BME280;21441;52.190;20.910;2023-05-23T03:45:44;100078.84;;;15.01;63.39
35331;BME280;21441;52.190;20.910;2023-05-23T03:48:12;100082.41;;;15.02;62.97
35331;BME280;21441;52.190;20.910;2023-05-23T03:50:39;100081.97;;;15.12;62.60
35331;BME280;21441;52.190;20.910;2023-05-23T03:53:06;100086.56;;;15.24;62.27
35331;BME280;21441;52.190;20.910;2023-05-23T03:55:33;100074.34;;;15.15;61.96
35331;BME280;21441;52.190;20.910;2023-05-23T03:58:00;100075.38;;;15.21;61.83
35331;BME280;21441;52.190;20.910;2023-05-23T04:00:27;100081.16;;;15.18;62.01
35331;BME280;21441;52.190;20.910;2023-05-23T04:02:56;100067.75;;;15.18;62.47
35331;BME280;21441;52.190;20.910;2023-05-23T04:05:23;100075.00;;;15.31;62.16
35331;BME280;21441;52.190;20.910;2023-05-23T04:07:50;100073.13;;;15.38;62.28
35331;BME280;21441;52.190;20.910;2023-05-23T04:10:18;100068.78;;;15.57;61.77
35331;BME280;21441;52.190;20.910;2023-05-23T04:12:45;100072.28;;;15.57;61.59
35331;BME280;21441;52.190;20.910;2023-05-23T04:15:13;100063.00;;;15.46;60.66
35331;BME280;21441;52.190;20.910;2023-05-23T04:17:40;100065.47;;;15.48;61.80
35331;BME280;21441;52.190;20.910;2023-05-23T04:20:10;100062.16;;;15.59;61.90
35331;BME280;21441;52.190;20.910;2023-05-23T04:22:37;100055.53;;;15.68;60.42
35331;BME280;21441;52.190;20.910;2023-05-23T04:25:05;100065.47;;;15.68;59.92
35331;BME280;21441;52.190;20.910;2023-05-23T04:27:32;100072.09;;;15.85;59.42
35331;BME280;21441;52.190;20.910;2023-05-23T04:30:00;100071.03;;;15.86;60.55
35331;BME280;21441;52.190;20.910;2023-05-23T04:32:27;100076.19;;;16.01;58.40
35331;BME280;21441;52.190;20.910;2023-05-23T04:34:54;100067.22;;;16.21;58.22
35331;BME280;21441;52.190;20.910;2023-05-23T04:37:24;100067.97;;;16.41;58.77
35331;BME280;21441;52.190;20.910;2023-05-23T04:39:51;100066.72;;;16.44;57.89
35331;BME280;21441;52.190;20.910;2023-05-23T04:42:18;100061.81;;;16.27;57.53
35331;BME280;21441;52.190;20.910;2023-05-23T04:44:49;100067.19;;;16.34;56.84
35331;BME280;21441;52.190;20.910;2023-05-23T04:47:17;100069.44;;;16.37;56.32
35331;BME280;21441;52.190;20.910;2023-05-23T04:49:44;100066.78;;;16.30;56.21
35331;BME280;21441;52.190;20.910;2023-05-23T04:52:12;100040.53;;;16.19;56.05
35331;BME280;21441;52.190;20.910;2023-05-23T04:54:41;100063.69;;;16.34;56.62
35331;BME280;21441;52.190;20.910;2023-05-23T04:57:09;100062.28;;;16.63;56.68
35331;BME280;21441;52.190;20.910;2023-05-23T04:59:37;100060.78;;;16.74;56.97
35331;BME280;21441;52.190;20.910;2023-05-23T05:02:04;100058.09;;;16.80;55.92
35331;BME280;21441;52.190;20.910;2023-05-23T05:04:32;100058.25;;;16.79;56.04
35331;BME280;21441;52.190;20.910;2023-05-23T05:06:59;100058.03;;;16.87;55.37
35331;BME280;21441;52.190;20.910;2023-05-23T05:09:28;100050.91;;;16.99;54.43
35331;BME280;21441;52.190;20.910;2023-05-23T05:11:57;100046.22;;;17.20;55.18
35331;BME280;21441;52.190;20.910;2023-05-23T05:14:24;100040.22;;;17.18;54.63
35331;BME280;21441;52.190;20.910;2023-05-23T05:16:51;100038.44;;;17.05;54.16
35331;BME280;21441;52.190;20.910;2023-05-23T05:19:19;100042.31;;;17.16;54.77
35331;BME280;21441;52.190;20.910;2023-05-23T05:21:46;100037.34;;;17.38;53.76
35331;BME280;21441;52.190;20.910;2023-05-23T05:24:13;100036.91;;;17.41;54.97
35331;BME280;21441;52.190;20.910;2023-05-23T05:26:40;100037.50;;;17.43;54.30
35331;BME280;21441;52.190;20.910;2023-05-23T05:29:09;100042.09;;;17.61;54.49
35331;BME280;21441;52.190;20.910;2023-05-23T05:31:36;100037.63;;;17.73;54.18
35331;BME280;21441;52.190;20.910;2023-05-23T05:34:03;100039.88;;;17.76;52.77
35331;BME280;21441;52.190;20.910;2023-05-23T05:36:30;100035.28;;;17.83;53.06
35331;BME280;21441;52.190;20.910;2023-05-23T05:38:58;100033.25;;;18.15;53.13
35331;BME280;21441;52.190;20.910;2023-05-23T05:41:25;100036.84;;;17.91;52.60
35331;BME280;21441;52.190;20.910;2023-05-23T05:43:52;100036.41;;;18.12;52.85
35331;BME280;21441;52.190;20.910;2023-05-23T05:46:21;100036.72;;;18.23;53.06
35331;BME280;21441;52.190;20.910;2023-05-23T05:48:48;100037.38;;;18.37;52.52
35331;BME280;21441;52.190;20.910;2023-05-23T05:51:15;100035.91;;;18.52;52.12
35331;BME280;21441;52.190;20.910;2023-05-23T05:53:42;100031.19;;;18.66;51.37
35331;BME280;21441;52.190;20.910;2023-05-23T05:56:09;100033.88;;;18.66;51.09
35331;BME280;21441;52.190;20.910;2023-05-23T05:58:36;100030.75;;;18.81;51.01
35331;BME280;21441;52.190;20.910;2023-05-23T06:01:03;100031.25;;;18.90;50.87
35331;BME280;21441;52.190;20.910;2023-05-23T06:03:32;100028.47;;;18.96;50.92
35331;BME280;21441;52.190;20.910;2023-05-23T06:05:59;100023.56;;;19.17;51.16
35331;BME280;21441;52.190;20.910;2023-05-23T06:08:27;100029.69;;;19.36;50.43
35331;BME280;21441;52.190;20.910;2023-05-23T06:10:53;100028.19;;;19.40;48.79
35331;BME280;21441;52.190;20.910;2023-05-23T06:13:21;100031.59;;;19.24;48.28
35331;BME280;21441;52.190;20.910;2023-05-23T06:15:48;100030.72;;;19.23;49.41
35331;BME280;21441;52.190;20.910;2023-05-23T06:18:15;100025.34;;;19.35;48.78
35331;BME280;21441;52.190;20.910;2023-05-23T06:20:44;100027.47;;;19.68;48.52
35331;BME280;21441;52.190;20.910;2023-05-23T06:23:11;100022.22;;;19.85;46.88
35331;BME280;21441;52.190;20.910;2023-05-23T06:25:39;100022.41;;;19.60;46.70
35331;BME280;21441;52.190;20.910;2023-05-23T06:28:05;100016.31;;;19.53;47.72
35331;BME280;21441;52.190;20.910;2023-05-23T06:30:33;100020.56;;;19.72;47.50
35331;BME280;21441;52.190;20.910;2023-05-23T06:33:00;100014.09;;;19.73;46.53
35331;BME280;21441;52.190;20.910;2023-05-23T06:35:27;100009.38;;;19.81;46.90
35331;BME280;21441;52.190;20.910;2023-05-23T06:37:56;100014.91;;;19.86;45.94
35331;BME280;21441;52.190;20.910;2023-05-23T06:40:23;100002.44;;;19.73;45.33
35331;BME280;21441;52.190;20.910;2023-05-23T06:42:50;100002.44;;;19.73;46.24
35331;BME280;21441;52.190;20.910;2023-05-23T06:45:17;99999.03;;;19.77;45.12
35331;BME280;21441;52.190;20.910;2023-05-23T06:47:44;99981.97;;;19.65;46.52
35331;BME280;21441;52.190;20.910;2023-05-23T06:50:13;99999.47;;;19.98;46.17
35331;BME280;21441;52.190;20.910;2023-05-23T06:52:40;99998.00;;;20.19;46.18
35331;BME280;21441;52.190;20.910;2023-05-23T06:55:10;99986.41;;;20.35;45.06
35331;BME280;21441;52.190;20.910;2023-05-23T06:57:40;99987.94;;;20.31;46.10
35331;BME280;21441;52.190;20.910;2023-05-23T07:00:08;99982.53;;;20.31;45.17
35331;BME280;21441;52.190;20.910;2023-05-23T07:02:35;99980.84;;;20.42;44.66
35331;BME280;21441;52.190;20.910;2023-05-23T07:05:03;99992.66;;;20.65;44.10
35331;BME280;21441;52.190;20.910;2023-05-23T07:07:30;99992.78;;;20.29;44.34
35331;BME280;21441;52.190;20.910;2023-05-23T07:09:57;99979.56;;;20.33;45.01
35331;BME280;21441;52.190;20.910;2023-05-23T07:12:25;99974.53;;;20.53;45.53
35331;BME280;21441;52.190;20.910;2023-05-23T07:14:53;99973.03;;;20.74;44.24
35331;BME280;21441;52.190;20.910;2023-05-23T07:17:20;99973.72;;;20.98;42.89
35331;BME280;21441;52.190;20.910;2023-05-23T07:19:47;99972.50;;;21.06;43.14
35331;BME280;21441;52.190;20.910;2023-05-23T07:22:14;99958.09;;;21.22;43.60
35331;BME280;21441;52.190;20.910;2023-05-23T07:24:41;99954.72;;;21.15;42.79
35331;BME280;21441;52.190;20.910;2023-05-23T07:27:08;99955.47;;;21.28;43.92
35331;BME280;21441;52.190;20.910;2023-05-23T07:29:37;99952.16;;;21.42;41.00
35331;BME280;21441;52.190;20.910;2023-05-23T07:32:04;99953.72;;;21.55;41.79
35331;BME280;21441;52.190;20.910;2023-05-23T07:34:31;99954.28;;;21.57;40.58
35331;BME280;21441;52.190;20.910;2023-05-23T07:36:58;99945.50;;;21.50;40.03
35331;BME280;21441;52.190;20.910;2023-05-23T07:39:26;99958.47;;;21.65;40.74
35331;BME280;21441;52.190;20.910;2023-05-23T07:41:53;99942.84;;;21.55;39.37
35331;BME280;21441;52.190;20.910;2023-05-23T07:44:20;99940.13;;;21.55;41.80
35331;BME280;21441;52.190;20.910;2023-05-23T07:46:48;99934.22;;;21.58;40.72
35331;BME280;21441;52.190;20.910;2023-05-23T07:49:15;99940.84;;;21.46;40.15
35331;BME280;21441;52.190;20.910;2023-05-23T07:51:42;99938.38;;;21.66;40.06
35331;BME280;21441;52.190;20.910;2023-05-23T07:54:09;99937.19;;;21.57;39.44
35331;BME280;21441;52.190;20.910;2023-05-23T07:56:36;99933.34;;;21.75;39.99
35331;BME280;21441;52.190;20.910;2023-05-23T07:59:04;99935.34;;;21.62;39.61
35331;BME280;21441;52.190;20.910;2023-05-23T08:01:33;99932.50;;;21.35;38.86
35331;BME280;21441;52.190;20.910;2023-05-23T08:04:02;99938.00;;;21.40;37.93
35331;BME280;21441;52.190;20.910;2023-05-23T08:06:29;99937.50;;;21.60;40.18
35331;BME280;21441;52.190;20.910;2023-05-23T08:08:57;99934.25;;;21.41;40.76
35331;BME280;21441;52.190;20.910;2023-05-23T08:11:24;99929.22;;;21.50;39.60
35331;BME280;21441;52.190;20.910;2023-05-23T08:13:52;99931.94;;;21.72;39.56
35331;BME280;21441;52.190;20.910;2023-05-23T08:16:19;99933.16;;;21.81;38.25
35331;BME280;21441;52.190;20.910;2023-05-23T08:18:46;99928.28;;;21.83;38.05
35331;BME280;21441;52.190;20.910;2023-05-23T08:21:14;99935.91;;;22.09;39.33
35331;BME280;21441;52.190;20.910;2023-05-23T08:23:41;99926.19;;;21.91;38.56
35331;BME280;21441;52.190;20.910;2023-05-23T08:26:08;99917.84;;;21.97;38.66
35331;BME280;21441;52.190;20.910;2023-05-23T08:28:36;99927.66;;;21.98;37.66
35331;BME280;21441;52.190;20.910;2023-05-23T08:31:03;99925.06;;;21.87;37.88
35331;BME280;21441;52.190;20.910;2023-05-23T08:33:32;99918.88;;;21.91;37.40
35331;BME280;21441;52.190;20.910;2023-05-23T08:35:59;99911.63;;;21.75;38.01
35331;BME280;21441;52.190;20.910;2023-05-23T08:38:27;99921.03;;;21.89;37.93
35331;BME280;21441;52.190;20.910;2023-05-23T08:40:55;99909.63;;;22.14;37.56
35331;BME280;21441;52.190;20.910;2023-05-23T08:43:24;99901.28;;;22.21;38.46
35331;BME280;21441;52.190;20.910;2023-05-23T08:45:51;99912.38;;;22.41;38.57
35331;BME280;21441;52.190;20.910;2023-05-23T08:48:19;99912.72;;;22.23;37.82
35331;BME280;21441;52.190;20.910;2023-05-23T08:50:47;99910.47;;;21.93;38.03
35331;BME280;21441;52.190;20.910;2023-05-23T08:53:15;99911.59;;;21.97;37.30
35331;BME280;21441;52.190;20.910;2023-05-23T08:55:47;99904.16;;;22.09;36.70
35331;BME280;21441;52.190;20.910;2023-05-23T08:58:16;99891.00;;;22.01;36.21
35331;BME280;21441;52.190;20.910;2023-05-23T09:00:46;99894.41;;;22.35;36.82
35331;BME280;21441;52.190;20.910;2023-05-23T09:03:13;99900.53;;;22.53;36.09
35331;BME280;21441;52.190;20.910;2023-05-23T09:05:41;99893.47;;;22.57;36.10
35331;BME280;21441;52.190;20.910;2023-05-23T09:08:08;99904.22;;;22.74;35.68
35331;BME280;21441;52.190;20.910;2023-05-23T09:10:35;99900.91;;;22.99;36.68
35331;BME280;21441;52.190;20.910;2023-05-23T09:13:04;99889.16;;;22.93;35.53
35331;BME280;21441;52.190;20.910;2023-05-23T09:15:32;99887.69;;;23.13;35.59
35331;BME280;21441;52.190;20.910;2023-05-23T09:17:59;99888.50;;;23.13;34.90
35331;BME280;21441;52.190;20.910;2023-05-23T09:20:28;99896.25;;;22.62;35.57
35331;BME280;21441;52.190;20.910;2023-05-23T09:22:55;99888.38;;;22.65;36.00
35331;BME280;21441;52.190;20.910;2023-05-23T09:25:22;99882.25;;;22.80;34.59
35331;BME280;21441;52.190;20.910;2023-05-23T09:27:51;99878.69;;;22.75;34.32
35331;BME280;21441;52.190;20.910;2023-05-23T09:30:20;99878.94;;;23.05;34.05
35331;BME280;21441;52.190;20.910;2023-05-23T09:32:57;99881.28;;;23.39;35.70
35331;BME280;21441;52.190;20.910;2023-05-23T09:35:27;99877.50;;;23.45;33.83
35331;BME280;21441;52.190;20.910;2023-05-23T09:37:56;99872.06;;;23.45;33.96
35331;BME280;21441;52.190;20.910;2023-05-23T09:40:28;99874.06;;;23.65;33.42
35331;BME280;21441;52.190;20.910;2023-05-23T09:43:00;99886.06;;;23.69;33.43
35331;BME280;21441;52.190;20.910;2023-05-23T09:45:30;99864.53;;;23.68;32.95
35331;BME280;21441;52.190;20.910;2023-05-23T09:47:58;99866.41;;;23.57;32.78
35331;BME280;21441;52.190;20.910;2023-05-23T09:50:30;99858.03;;;23.69;33.65
35331;BME280;21441;52.190;20.910;2023-05-23T09:52:58;99862.69;;;23.79;31.86
35331;BME280;21441;52.190;20.910;2023-05-23T09:55:26;99872.44;;;23.75;33.83
35331;BME280;21441;52.190;20.910;2023-05-23T09:57:53;99870.56;;;23.75;33.65
35331;BME280;21441;52.190;20.910;2023-05-23T10:00:23;99881.84;;;23.36;32.48
35331;BME280;21441;52.190;20.910;2023-05-23T10:03:04;99863.91;;;23.45;33.84
35331;BME280;21441;52.190;20.910;2023-05-23T10:05:37;99871.44;;;23.86;33.45
35331;BME280;21441;52.190;20.910;2023-05-23T10:08:08;99877.53;;;24.29;34.71
35331;BME280;21441;52.190;20.910;2023-05-23T10:13:48;99864.91;;;23.97;33.53
35331;BME280;21441;52.190;20.910;2023-05-23T10:16:19;99866.53;;;23.93;33.84
35331;BME280;21441;52.190;20.910;2023-05-23T10:18:55;99858.69;;;24.12;32.89
35331;BME280;21441;52.190;20.910;2023-05-23T10:21:24;99862.50;;;24.21;32.37
35331;BME280;21441;52.190;20.910;2023-05-23T10:23:58;99860.06;;;24.25;31.87
35331;BME280;21441;52.190;20.910;2023-05-23T10:26:26;99854.91;;;24.34;32.27
35331;BME280;21441;52.190;20.910;2023-05-23T10:28:53;99859.50;;;24.13;32.04
35331;BME280;21441;52.190;20.910;2023-05-23T10:31:22;99845.09;;;24.38;32.36
35331;BME280;21441;52.190;20.910;2023-05-23T10:33:55;99848.09;;;24.67;32.87
35331;BME280;21441;52.190;20.910;2023-05-23T10:36:32;99848.09;;;24.77;31.70
35331;BME280;21441;52.190;20.910;2023-05-23T10:39:04;99850.00;;;24.92;31.47
35331;BME280;21441;52.190;20.910;2023-05-23T10:41:39;99840.44;;;24.84;31.90
35331;BME280;21441;52.190;20.910;2023-05-23T10:44:13;99833.84;;;25.01;31.48
35331;BME280;21441;52.190;20.910;2023-05-23T10:46:50;99843.91;;;25.16;31.95
35331;BME280;21441;52.190;20.910;2023-05-23T10:49:19;99844.25;;;24.94;31.59
35331;BME280;21441;52.190;20.910;2023-05-23T10:51:48;99823.72;;;25.17;30.91
35331;BME280;21441;52.190;20.910;2023-05-23T10:54:17;99857.78;;;25.45;31.90
35331;BME280;21441;52.190;20.910;2023-05-23T10:56:44;99850.19;;;25.16;31.22
35331;BME280;21441;52.190;20.910;2023-05-23T10:59:19;99845.34;;;24.98;30.55
35331;BME280;21441;52.190;20.910;2023-05-23T11:01:49;99832.38;;;25.44;30.47
35331;BME280;21441;52.190;20.910;2023-05-23T11:04:25;99833.47;;;25.53;31.60
35331;BME280;21441;52.190;20.910;2023-05-23T11:06:53;99830.56;;;25.19;30.81
35331;BME280;21441;52.190;20.910;2023-05-23T11:09:21;99829.38;;;25.46;31.13
35331;BME280;21441;52.190;20.910;2023-05-23T11:11:53;99804.25;;;25.44;30.56
35331;BME280;21441;52.190;20.910;2023-05-23T11:14:52;99816.41;;;25.72;30.99
35331;BME280;21441;52.190;20.910;2023-05-23T11:17:29;99817.75;;;25.74;30.98
35331;BME280;21441;52.190;20.910;2023-05-23T11:20:02;99818.03;;;25.78;30.69
35331;BME280;21441;52.190;20.910;2023-05-23T11:22:31;99818.13;;;25.58;30.52
35331;BME280;21441;52.190;20.910;2023-05-23T11:24:59;99812.25;;;25.80;31.72
35331;BME280;21441;52.190;20.910;2023-05-23T11:27:28;99818.13;;;26.07;32.32
35331;BME280;21441;52.190;20.910;2023-05-23T11:29:59;99807.97;;;25.68;30.47
35331;BME280;21441;52.190;20.910;2023-05-23T11:32:27;99804.16;;;25.64;30.73
35331;BME280;21441;52.190;20.910;2023-05-23T11:34:59;99795.16;;;26.43;30.99
35331;BME280;21441;52.190;20.910;2023-05-23T11:37:27;99796.34;;;26.66;29.04
35331;BME280;21441;52.190;20.910;2023-05-23T11:39:55;99792.63;;;26.51;29.47
35331;BME280;21441;52.190;20.910;2023-05-23T11:42:22;99800.44;;;26.68;29.44
35331;BME280;21441;52.190;20.910;2023-05-23T11:44:50;99801.56;;;26.62;29.13
35331;BME280;21441;52.190;20.910;2023-05-23T11:47:18;99788.25;;;26.50;29.45
35331;BME280;21441;52.190;20.910;2023-05-23T11:49:46;99784.00;;;26.68;29.61
35331;BME280;21441;52.190;20.910;2023-05-23T11:52:15;99786.75;;;26.68;29.32
35331;BME280;21441;52.190;20.910;2023-05-23T11:54:42;99792.25;;;26.92;29.92
35331;BME280;21441;52.190;20.910;2023-05-23T11:57:09;99791.16;;;26.30;29.34
35331;BME280;21441;52.190;20.910;2023-05-23T11:59:39;99788.06;;;26.42;30.07
35331;BME280;21441;52.190;20.910;2023-05-23T12:02:06;99789.50;;;26.00;30.37
35331;BME280;21441;52.190;20.910;2023-05-23T12:04:34;99791.22;;;26.54;30.19
35331;BME280;21441;52.190;20.910;2023-05-23T12:07:04;99778.94;;;26.51;29.46
35331;BME280;21441;52.190;20.910;2023-05-23T12:09:38;99772.31;;;26.87;28.45
35331;BME280;21441;52.190;20.910;2023-05-23T12:12:07;99785.44;;;27.14;28.48
35331;BME280;21441;52.190;20.910;2023-05-23T12:14:34;99773.59;;;27.62;28.20
35331;BME280;21441;52.190;20.910;2023-05-23T12:17:03;99762.19;;;27.73;27.19
35331;BME280;21441;52.190;20.910;2023-05-23T12:19:31;99772.75;;;27.42;28.14
35331;BME280;21441;52.190;20.910;2023-05-23T12:22:04;99781.66;;;27.34;28.67
35331;BME280;21441;52.190;20.910;2023-05-23T12:24:33;99790.84;;;27.19;27.93
35331;BME280;21441;52.190;20.910;2023-05-23T12:27:02;99780.06;;;26.50;28.71
35331;BME280;21441;52.190;20.910;2023-05-23T12:29:30;99771.59;;;26.76;28.68
35331;BME280;21441;52.190;20.910;2023-05-23T12:31:58;99765.63;;;26.98;29.06
35331;BME280;21441;52.190;20.910;2023-05-23T12:34:26;99776.09;;;26.67;28.85
35331;BME280;21441;52.190;20.910;2023-05-23T12:36:54;99757.94;;;26.76;28.16
35331;BME280;21441;52.190;20.910;2023-05-23T12:39:26;99754.91;;;27.26;28.32
35331;BME280;21441;52.190;20.910;2023-05-23T12:42:06;99756.13;;;27.39;27.82
35331;BME280;21441;52.190;20.910;2023-05-23T12:44:33;99773.06;;;27.16;29.55
35331;BME280;21441;52.190;20.910;2023-05-23T12:47:01;99767.19;;;26.80;28.76
35331;BME280;21441;52.190;20.910;2023-05-23T12:49:29;99757.66;;;26.78;29.57
35331;BME280;21441;52.190;20.910;2023-05-23T12:51:56;99762.13;;;26.92;29.70
35331;BME280;21441;52.190;20.910;2023-05-23T12:54:23;99749.66;;;26.52;30.04